Time;durP1;ratioP1;P1;durP2;ratioP2;P2;SDS_P1;SDS_P2;PMS_P1;PMS_P2;Temp;Humidity;BMP_temperature;BMP_pressure;BME280_temperature;BME280_humidity;BME280_pressure;Samples;Min_cycle;Max_cycle;Signal;HPM_P1;HPM_P2
2022/04/21 00:00:35;;;;;;;22.73;7.97;;;9.60;83.90;;;;;;5073866;28;20024;-49
2022/04/21 00:03:01;;;;;;;14.93;7.80;;;9.60;83.70;;;;;;5073605;28;20036;-57
2022/04/21 00:05:26;;;;;;;20.70;8.30;;;9.60;84.00;;;;;;5073628;28;20029;-53
2022/04/21 00:07:53;;;;;;;16.20;8.07;;;9.60;84.00;;;;;;5072351;28;20036;-51
2022/04/21 00:10:19;;;;;;;26.10;7.85;;;9.50;84.20;;;;;;5073560;28;20078;-52
2022/04/21 00:12:44;;;;;;;18.33;7.43;;;9.50;84.80;;;;;;5073263;28;20044;-54
2022/04/21 00:15:11;;;;;;;21.50;7.55;;;9.40;84.60;;;;;;5073443;28;20033;-44
2022/04/21 00:17:37;;;;;;;21.63;8.00;;;9.40;84.90;;;;;;5073156;28;20053;-48
2022/04/21 00:20:04;;;;;;;22.85;9.25;;;9.40;85.40;;;;;;5073356;28;20047;-46
2022/04/21 00:25:13;;;;;;;14.43;7.55;;;9.40;85.20;;;;;;5073299;28;20042;-52
2022/04/21 00:27:40;;;;;;;20.10;8.00;;;9.40;85.60;;;;;;5073194;28;20032;-46
2022/04/21 00:30:07;;;;;;;17.95;8.00;;;9.40;85.50;;;;;;5073130;28;20387;-46
2022/04/21 00:32:37;;;;;;;19.27;8.00;;;9.40;85.70;;;;;;5072773;28;20024;-45
2022/04/21 00:35:05;;;;;;;18.63;8.65;;;9.40;85.70;;;;;;5072174;28;20032;-48
2022/04/21 00:37:30;;;;;;;18.48;8.13;;;9.40;85.50;;;;;;5072974;28;20391;-45
2022/04/21 00:39:56;;;;;;;14.52;7.65;;;9.40;85.80;;;;;;5072999;28;20025;-47
2022/04/21 00:42:22;;;;;;;19.30;8.00;;;9.30;86.10;;;;;;5072592;28;20030;-55
2022/04/21 00:44:50;;;;;;;16.15;7.88;;;9.30;85.60;;;;;;5072540;28;20036;-52
2022/04/21 00:47:17;;;;;;;22.60;8.35;;;9.30;86.20;;;;;;5072809;28;20024;-53
2022/04/21 00:49:45;;;;;;;15.48;7.45;;;9.30;85.80;;;;;;5072915;28;20059;-58
2022/04/21 00:52:12;;;;;;;20.48;8.27;;;9.30;86.20;;;;;;5072511;28;20032;-52
2022/04/21 00:54:38;;;;;;;18.50;8.05;;;9.30;86.20;;;;;;5072807;28;20472;-48
2022/04/21 00:57:04;;;;;;;17.88;7.70;;;9.20;86.30;;;;;;5072615;28;20032;-51
2022/04/21 00:59:32;;;;;;;15.88;8.73;;;9.20;86.40;;;;;;5072603;28;20032;-55
2022/04/21 01:04:45;;;;;;;19.05;8.02;;;9.20;86.60;;;;;;5072812;28;20038;-42
2022/04/21 01:07:11;;;;;;;21.00;7.80;;;9.20;86.90;;;;;;5072271;28;20487;-48
2022/04/21 01:09:38;;;;;;;23.27;9.00;;;9.20;87.30;;;;;;5072416;28;20060;-40
2022/04/21 01:12:09;;;;;;;17.83;8.05;;;9.20;87.20;;;;;;5072141;28;20471;-51
2022/04/21 01:14:38;;;;;;;17.58;8.30;;;9.20;87.40;;;;;;5072279;28;20025;-53
2022/04/21 01:17:09;;;;;;;19.92;8.90;;;9.20;88.10;;;;;;5072259;28;20041;-44
2022/04/21 01:19:35;;;;;;;25.30;8.18;;;9.10;87.90;;;;;;5072184;28;20177;-42
2022/04/21 01:22:01;;;;;;;19.90;8.25;;;9.10;87.20;;;;;;5072069;28;20052;-46
2022/04/21 01:24:27;;;;;;;24.60;8.85;;;9.10;87.90;;;;;;5072030;28;20459;-50
2022/04/21 01:26:57;;;;;;;20.23;8.77;;;9.10;87.60;;;;;;5072212;28;20038;-50
2022/04/21 01:29:23;;;;;;;;;;;9.00;87.50;;;;;;5072353;28;20036;-55
2022/04/21 01:31:48;;;;;;;20.02;7.88;;;9.00;88.10;;;;;;5071707;28;19991;-40
2022/04/21 01:34:14;;;;;;;17.80;8.82;;;9.00;88.00;;;;;;5072033;28;20123;-57
2022/04/21 01:41:08;;;;;;;18.30;8.30;;;9.00;87.90;;;;;;5071953;28;20092;-55
2022/04/21 01:42:17;;;;;;;21.52;9.13;;;8.90;88.70;;;;;;5071932;28;20105;-45
2022/04/21 01:44:43;;;;;;;21.02;8.80;;;8.90;88.70;;;;;;5071738;28;20744;-52
2022/04/21 01:47:09;;;;;;;22.85;8.88;;;8.90;89.00;;;;;;5071590;28;20032;-40
2022/04/21 01:49:35;;;;;;;19.67;9.45;;;8.90;89.30;;;;;;5071700;28;20031;-51
2022/04/21 01:52:01;;;;;;;19.00;9.13;;;8.90;89.50;;;;;;5071407;28;20021;-40
2022/04/21 01:54:27;;;;;;;20.42;9.05;;;8.90;89.40;;;;;;5070948;28;20036;-53
2022/04/21 01:56:52;;;;;;;22.42;9.52;;;8.90;89.70;;;;;;5071437;28;20036;-46
2022/04/21 01:59:18;;;;;;;26.48;9.85;;;8.80;89.40;;;;;;5071501;28;20032;-57
2022/04/21 02:01:43;;;;;;;21.95;9.48;;;8.80;89.80;;;;;;5071178;28;20035;-56
2022/04/21 02:04:09;;;;;;;21.83;9.05;;;8.80;90.60;;;;;;5071388;28;20416;-53
2022/04/21 02:06:35;;;;;;;21.45;8.15;;;8.80;89.50;;;;;;5071427;28;20099;-56
2022/04/21 02:09:00;;;;;;;15.88;8.38;;;8.80;90.10;;;;;;5071260;28;20040;-41
2022/04/21 02:11:28;;;;;;;19.50;8.50;;;8.70;90.30;;;;;;5071234;28;20017;-58
2022/04/21 02:13:53;;;;;;;16.05;8.10;;;8.70;90.30;;;;;;5071270;28;20491;-58
2022/04/21 02:16:19;;;;;;;22.88;9.65;;;8.70;90.30;;;;;;5071018;28;20040;-53
2022/04/21 02:18:44;;;;;;;19.25;8.93;;;8.70;90.30;;;;;;5071186;28;20052;-51
2022/04/21 02:21:10;;;;;;;21.25;9.30;;;8.70;90.40;;;;;;5071533;28;20024;-42
2022/04/21 02:23:36;;;;;;;24.20;9.27;;;8.70;90.40;;;;;;5070990;28;20395;-47
2022/04/21 02:26:02;;;;;;;18.52;8.93;;;8.60;90.60;;;;;;5070753;28;20043;-50
2022/04/21 02:28:28;;;;;;;20.90;9.80;;;8.60;90.60;;;;;;5070944;28;20132;-50
2022/04/21 02:30:53;;;;;;;16.38;9.35;;;8.60;90.70;;;;;;5071070;28;20060;-48
2022/04/21 02:33:20;;;;;;;19.80;9.70;;;8.60;90.70;;;;;;5070791;28;20414;-50
2022/04/21 02:35:46;;;;;;;24.38;10.32;;;8.60;91.00;;;;;;5071122;28;20145;-45
2022/04/21 02:38:11;;;;;;;16.80;9.02;;;8.60;90.90;;;;;;5071294;28;20046;-47
2022/04/21 02:40:37;;;;;;;23.88;10.65;;;8.60;90.90;;;;;;5071002;28;20028;-47
2022/04/21 02:43:03;;;;;;;21.98;9.70;;;8.60;90.90;;;;;;5070560;28;20107;-49
2022/04/21 02:45:28;;;;;;;23.33;10.60;;;8.50;91.00;;;;;;5070884;28;20112;-40
2022/04/21 02:47:55;;;;;;;21.08;10.68;;;8.60;91.10;;;;;;5070710;28;20116;-50
2022/04/21 02:50:21;;;;;;;20.75;10.02;;;8.50;91.30;;;;;;5069730;28;20430;-47
2022/04/21 02:52:47;;;;;;;20.08;10.20;;;8.50;91.20;;;;;;5070616;28;20463;-50
2022/04/21 02:57:58;;;;;;;22.02;10.05;;;8.40;91.10;;;;;;5071177;28;20059;-53
2022/04/21 03:00:24;;;;;;;22.95;9.95;;;8.40;91.20;;;;;;5070975;28;20021;-52
2022/04/21 03:02:50;;;;;;;22.48;11.35;;;8.40;91.30;;;;;;5069762;28;20391;-56
2022/04/21 03:05:16;;;;;;;29.77;12.52;;;8.40;91.50;;;;;;5070554;28;20133;-48
2022/04/21 03:07:42;;;;;;;22.85;12.50;;;8.40;91.50;;;;;;5074314;28;20068;-53
2022/04/21 03:10:08;;;;;;;24.17;12.23;;;8.50;91.30;;;;;;5074853;28;20055;-46
2022/04/21 03:12:34;;;;;;;32.83;12.82;;;8.50;91.20;;;;;;5074719;28;20029;-53
2022/04/21 03:14:59;;;;;;;24.20;12.40;;;8.50;91.30;;;;;;5074623;28;20132;-53
2022/04/21 03:17:25;;;;;;;25.42;12.60;;;8.50;91.50;;;;;;5073946;28;20388;-50
2022/04/21 03:19:51;;;;;;;24.30;12.75;;;8.40;91.40;;;;;;5074463;28;20028;-41
2022/04/21 03:25:03;;;;;;;23.88;12.20;;;8.40;91.60;;;;;;5074439;28;20036;-46
2022/04/21 03:27:29;;;;;;;25.50;13.18;;;8.40;91.80;;;;;;5072662;28;20130;-47
2022/04/21 03:30:02;;;;;;;26.85;13.20;;;8.40;91.70;;;;;;5074389;28;20036;-42
2022/04/21 03:32:29;;;;;;;25.90;14.20;;;8.30;91.80;;;;;;5074431;28;20032;-56
2022/04/21 03:34:55;;;;;;;35.45;14.70;;;8.30;91.80;;;;;;5074291;28;20502;-50
2022/04/21 03:37:21;;;;;;;28.23;14.20;;;8.30;91.70;;;;;;5074060;28;20106;-51
2022/04/21 03:39:47;;;;;;;27.10;14.60;;;8.30;91.80;;;;;;5074072;28;20062;-53
2022/04/21 03:42:25;;;;;;;26.88;13.65;;;8.30;91.90;;;;;;5074408;28;20137;-40
2022/04/21 03:44:54;;;;;;;26.85;13.50;;;8.30;92.00;;;;;;5074080;28;20024;-46
2022/04/21 03:47:21;;;;;;;25.17;13.35;;;8.30;91.90;;;;;;5073094;28;20395;-45
2022/04/21 03:49:47;;;;;;;27.85;15.75;;;8.20;92.00;;;;;;5074013;28;20032;-52
2022/04/21 03:52:13;;;;;;;32.13;15.73;;;8.30;92.30;;;;;;5074108;28;20055;-53
2022/04/21 03:54:40;;;;;;;30.80;16.27;;;8.20;92.20;;;;;;5073739;28;20111;-49
2022/04/21 03:57:06;;;;;;;32.92;16.25;;;8.30;92.20;;;;;;5073558;28;20104;-50
2022/04/21 03:59:33;;;;;;;34.72;16.77;;;8.30;92.20;;;;;;5073703;28;20029;-53
2022/04/21 04:02:02;;;;;;;26.48;15.10;;;8.30;92.20;;;;;;5073588;28;20021;-46
2022/04/21 04:04:29;;;;;;;28.73;16.55;;;8.30;92.20;;;;;;5073799;28;20032;-52
2022/04/21 04:12:23;;;;;;;27.92;16.58;;;8.30;92.20;;;;;;5073599;28;20028;-57
2022/04/21 04:14:49;;;;;;;34.83;17.77;;;8.30;92.20;;;;;;5073520;28;20029;-54
2022/04/21 04:17:14;;;;;;;28.05;15.25;;;8.30;92.10;;;;;;5072899;28;20052;-56
2022/04/21 04:19:40;;;;;;;29.98;17.23;;;8.30;92.10;;;;;;5071756;28;20112;-45
2022/04/21 04:22:06;;;;;;;38.67;18.88;;;8.30;92.00;;;;;;5073232;28;20127;-51
2022/04/21 04:24:32;;;;;;;35.20;17.73;;;8.40;92.10;;;;;;5073032;28;20032;-40
2022/04/21 04:26:58;;;;;;;30.35;17.58;;;8.40;91.80;;;;;;5073418;28;20025;-48
2022/04/21 04:29:24;;;;;;;27.25;16.70;;;8.40;91.80;;;;;;5073240;28;20488;-50
2022/04/21 04:31:53;;;;;;;30.63;17.23;;;8.30;92.00;;;;;;5073004;28;20040;-52
2022/04/21 04:34:19;;;;;;;;;;;8.30;92.30;;;;;;5073527;28;20024;-57
2022/04/21 04:36:46;;;;;;;32.53;17.70;;;8.30;92.10;;;;;;5073123;28;19911;-45
2022/04/21 04:39:15;;;;;;;28.17;17.05;;;8.40;92.00;;;;;;5073296;28;20111;-46
2022/04/21 04:44:26;;;;;;;34.13;18.70;;;8.30;92.10;;;;;;5073259;28;20059;-55
2022/04/21 04:46:52;;;;;;;33.83;18.30;;;8.30;92.60;;;;;;5073044;28;20028;-45
2022/04/21 04:49:17;;;;;;;30.17;18.08;;;8.20;92.30;;;;;;5071299;28;20491;-46
2022/04/21 04:51:43;;;;;;;33.55;18.77;;;8.20;92.20;;;;;;5072593;28;20399;-49
2022/04/21 04:54:11;;;;;;;30.15;18.58;;;8.20;92.30;;;;;;5072808;28;20121;-54
2022/04/21 04:56:38;;;;;;;29.05;18.73;;;8.30;92.40;;;;;;5072720;28;20102;-48
2022/04/21 04:59:04;;;;;;;30.55;19.10;;;8.20;92.10;;;;;;5072632;28;20046;-45
2022/04/21 05:01:41;;;;;;;28.65;16.95;;;8.30;92.20;;;;;;5071042;28;20024;-48
2022/04/21 05:04:20;;;;;;;26.33;16.33;;;8.30;92.10;;;;;;5072574;28;20036;-53
2022/04/21 05:06:51;;;;;;;34.35;19.83;;;8.30;92.20;;;;;;5072552;28;20020;-52
2022/04/21 05:09:19;;;;;;;32.17;18.55;;;8.50;92.20;;;;;;5072142;28;20032;-53
2022/04/21 05:11:46;;;;;;;33.38;18.63;;;8.40;92.10;;;;;;5072318;28;20024;-51
2022/04/21 05:14:13;;;;;;;33.08;19.80;;;8.50;92.10;;;;;;5072568;28;20029;-40
2022/04/21 05:16:42;;;;;;;34.03;19.67;;;8.60;91.80;;;;;;5070361;28;20041;-45
2022/04/21 05:19:15;;;;;;;36.30;20.40;;;8.70;91.60;;;;;;5072265;28;20027;-49
2022/04/21 05:21:42;;;;;;;35.35;19.60;;;8.80;91.40;;;;;;5070207;28;20033;-53
2022/04/21 05:24:12;;;;;;;33.47;19.75;;;8.90;91.10;;;;;;5072141;28;20028;-44
2022/04/21 05:26:38;;;;;;;28.98;17.80;;;9.00;91.10;;;;;;5072103;28;20024;-52
2022/04/21 05:30:55;;;;;;;31.90;19.88;;;9.00;91.00;;;;;;5070110;28;20127;-51
2022/04/21 05:32:10;;;;;;;34.88;18.45;;;9.10;91.10;;;;;;5071638;28;20028;-48
2022/04/21 05:34:36;;;;;;;40.40;19.63;;;9.20;90.90;;;;;;5070034;28;20032;-52
2022/04/21 05:37:02;;;;;;;37.08;20.17;;;9.20;90.70;;;;;;5072199;28;20044;-48
2022/04/21 05:39:29;;;;;;;32.65;20.05;;;9.30;90.70;;;;;;5071916;28;20463;-53
2022/04/21 05:42:00;;;;;;;30.02;17.50;;;9.30;90.80;;;;;;5071677;28;20077;-48
2022/04/21 05:44:27;;;;;;;34.40;20.70;;;9.40;90.50;;;;;;5071830;28;20020;-53
2022/04/21 05:46:53;;;;;;;31.73;18.25;;;9.50;90.30;;;;;;5071468;28;20024;-44
2022/04/21 05:49:19;;;;;;;31.83;19.77;;;9.60;90.40;;;;;;5071542;28;20115;-40
2022/04/21 05:51:48;;;;;;;34.80;20.20;;;9.70;90.10;;;;;;5070728;28;20035;-40
2022/04/21 05:54:14;;;;;;;;;;;9.80;89.80;;;;;;5070519;28;20044;-40
2022/04/21 05:56:40;;;;;;;35.05;20.10;;;9.80;89.70;;;;;;5071104;28;19974;-40
2022/04/21 05:59:06;;;;;;;36.72;20.90;;;9.90;89.50;;;;;;5070962;28;20483;-56
2022/04/21 06:01:32;;;;;;;37.42;20.65;;;10.00;89.40;;;;;;5070524;28;20028;-44
2022/04/21 06:03:58;;;;;;;39.67;21.73;;;10.10;89.30;;;;;;5070925;28;20089;-52
2022/04/21 06:06:23;;;;;;;32.65;21.23;;;10.10;88.50;;;;;;5071121;28;20052;-56
2022/04/21 06:08:49;;;;;;;39.35;20.50;;;10.20;88.50;;;;;;5069970;28;20462;-50
2022/04/21 06:11:16;;;;;;;35.42;20.98;;;10.20;88.10;;;;;;5071310;28;20078;-48
2022/04/21 06:13:42;;;;;;;38.95;21.63;;;10.30;87.70;;;;;;5071195;28;20028;-49
2022/04/21 06:16:09;;;;;;;40.28;22.13;;;10.40;87.30;;;;;;5069975;28;20049;-46
2022/04/21 06:18:36;;;;;;;34.03;21.60;;;10.60;87.00;;;;;;5066595;28;20086;-46
2022/04/21 06:21:02;;;;;;;36.53;22.88;;;10.70;86.80;;;;;;5068728;28;20099;-49
2022/04/21 06:23:28;;;;;;;41.88;23.02;;;10.80;86.50;;;;;;5069546;28;20438;-51
2022/04/21 06:25:58;;;;;;;36.22;21.58;;;10.90;85.50;;;;;;5070316;28;20028;-49
2022/04/21 06:28:28;;;;;;;37.42;22.58;;;11.00;86.00;;;;;;5071007;28;20078;-54
2022/04/21 06:30:53;;;;;;;30.38;19.98;;;11.40;84.50;;;;;;5070441;28;20056;-45
2022/04/21 06:33:20;;;;;;;30.50;20.63;;;12.40;82.20;;;;;;5070975;28;20052;-44
2022/04/21 06:35:45;;;;;;;33.70;20.90;;;13.40;76.10;;;;;;5069492;28;20032;-54
2022/04/21 06:38:11;;;;;;;30.20;20.20;;;14.30;71.30;;;;;;5069145;28;20024;-46
2022/04/21 06:40:37;;;;;;;29.70;18.73;;;15.40;69.10;;;;;;5068599;28;20016;-47
2022/04/21 06:48:01;;;;;;;31.70;19.17;;;16.20;66.10;;;;;;5067871;28;20024;-51
2022/04/21 06:48:34;;;;;;;32.00;19.48;;;16.40;60.40;;;;;;5068566;28;20550;-43
2022/04/21 06:51:00;;;;;;;26.67;19.33;;;16.90;60.80;;;;;;5070812;28;20016;-49
2022/04/21 06:53:25;;;;;;;28.30;18.83;;;17.20;60.00;;;;;;5069576;28;20032;-40
2022/04/21 06:55:51;;;;;;;28.20;18.20;;;18.10;58.30;;;;;;5070706;28;20021;-50
2022/04/21 06:58:17;;;;;;;20.58;15.38;;;18.80;56.10;;;;;;5071177;28;20021;-47
2022/04/21 07:00:42;;;;;;;22.88;16.23;;;19.90;54.70;;;;;;5070858;28;20051;-52
2022/04/21 07:03:08;;;;;;;27.90;18.70;;;20.70;51.40;;;;;;5070892;28;20036;-49
2022/04/21 07:05:35;;;;;;;23.38;17.55;;;20.30;47.60;;;;;;5070861;28;20045;-49
2022/04/21 07:08:01;;;;;;;28.02;17.45;;;20.60;49.00;;;;;;5070223;28;20036;-41
2022/04/21 07:10:27;;;;;;;26.70;17.27;;;20.70;48.50;;;;;;5070535;28;20031;-48
2022/04/21 07:12:52;;;;;;;21.90;17.00;;;20.80;48.80;;;;;;5070261;28;20024;-43
2022/04/21 07:15:18;;;;;;;22.25;16.88;;;21.20;46.70;;;;;;5069953;28;20038;-51
2022/04/21 07:17:44;;;;;;;24.58;16.98;;;21.30;45.70;;;;;;5070253;28;20082;-47
2022/04/21 07:20:12;;;;;;;26.10;18.13;;;21.50;45.70;;;;;;5069904;28;20039;-48
2022/04/21 07:22:38;;;;;;;22.45;15.80;;;20.60;44.10;;;;;;5070362;28;20024;-44
2022/04/21 07:25:06;;;;;;;20.80;15.55;;;21.40;46.60;;;;;;5070501;28;20033;-47
2022/04/21 07:27:32;;;;;;;22.83;15.98;;;21.00;47.20;;;;;;5070481;28;20531;-48
2022/04/21 07:29:58;;;;;;;22.05;16.25;;;21.60;45.70;;;;;;5070557;28;20029;-54
2022/04/21 07:32:23;;;;;;;22.20;15.88;;;22.00;42.00;;;;;;5069371;28;20020;-45
2022/04/21 07:34:49;;;;;;;19.33;15.25;;;21.60;43.00;;;;;;5069028;28;20521;-43
2022/04/21 07:37:15;;;;;;;23.30;16.15;;;21.60;41.90;;;;;;5069868;28;20032;-48
2022/04/21 07:39:40;;;;;;;19.75;15.48;;;21.30;41.40;;;;;;5070442;28;20476;-48
2022/04/21 07:42:07;;;;;;;22.17;15.93;;;21.40;42.90;;;;;;5069917;28;20341;-46
2022/04/21 07:44:36;;;;;;;20.95;16.25;;;20.90;42.20;;;;;;5069925;28;20024;-52
2022/04/21 07:47:04;;;;;;;17.63;14.13;;;20.70;42.80;;;;;;5069954;28;20107;-43
2022/04/21 07:49:45;;;;;;;21.17;14.88;;;21.50;43.80;;;;;;5069813;28;20078;-43
2022/04/21 07:55:10;;;;;;;23.20;15.98;;;21.90;39.20;;;;;;5074055;28;20067;-47
2022/04/21 07:57:35;;;;;;;18.85;15.02;;;21.50;41.50;;;;;;5073858;28;20033;-45
2022/04/21 08:00:05;;;;;;;21.85;15.13;;;21.60;40.70;;;;;;5073858;28;20459;-50
2022/04/21 08:02:32;;;;;;;25.25;15.95;;;22.20;40.80;;;;;;5073533;28;20464;-44
2022/04/21 08:04:57;;;;;;;21.00;15.60;;;21.90;41.70;;;;;;5073700;28;20024;-42
2022/04/21 08:07:23;;;;;;;20.40;14.48;;;23.10;39.00;;;;;;5073646;28;20094;-42
2022/04/21 08:09:49;;;;;;;20.40;15.23;;;22.50;40.40;;;;;;5073128;28;20036;-49
2022/04/21 08:12:15;;;;;;;20.73;14.82;;;23.00;39.80;;;;;;5073450;28;20025;-48
2022/04/21 08:14:40;;;;;;;21.17;14.48;;;23.10;38.20;;;;;;5073646;28;20475;-49
2022/04/21 08:17:06;;;;;;;16.95;14.30;;;23.90;39.20;;;;;;5072218;28;20047;-45
2022/04/21 08:19:32;;;;;;;18.77;14.35;;;24.20;35.90;;;;;;5073549;28;20391;-48
2022/04/21 08:21:58;;;;;;;18.23;14.43;;;23.00;37.80;;;;;;5073267;28;20043;-40
2022/04/21 08:32:44;;;;;;;17.20;14.05;;;24.00;33.90;;;;;;5073244;28;20063;-44
2022/04/21 08:35:13;;;;;;;19.05;14.15;;;23.90;37.70;;;;;;5071581;28;20032;-53
2022/04/21 08:37:40;;;;;;;15.57;13.40;;;23.40;35.80;;;;;;5073103;28;20060;-56
2022/04/21 08:40:06;;;;;;;16.25;13.73;;;24.00;40.90;;;;;;5072922;28;20028;-48
2022/04/21 08:42:37;;;;;;;18.15;13.55;;;25.40;34.50;;;;;;5073239;28;20025;-42
2022/04/21 08:45:04;;;;;;;19.27;12.18;;;26.50;34.50;;;;;;5073263;28;20396;-59
2022/04/21 08:47:31;;;;;;;17.20;12.82;;;27.70;34.20;;;;;;5072485;28;20024;-49
2022/04/21 08:50:06;;;;;;;15.82;12.45;;;28.30;31.80;;;;;;5072275;28;20149;-43
2022/04/21 08:52:35;;;;;;;15.75;13.13;;;27.90;32.90;;;;;;5072765;28;20429;-48
2022/04/21 08:55:04;;;;;;;16.35;12.95;;;29.40;31.00;;;;;;5072926;28;20035;-50
2022/04/21 08:57:31;;;;;;;13.40;10.18;;;28.70;28.50;;;;;;5072749;28;20399;-49
2022/04/21 08:59:58;;;;;;;18.35;12.82;;;29.40;31.90;;;;;;5072286;28;20024;-42
2022/04/21 09:02:39;;;;;;;16.67;13.30;;;28.40;29.40;;;;;;5072147;28;20029;-53
2022/04/21 09:05:05;;;;;;;17.30;12.63;;;27.70;30.80;;;;;;5072289;28;20052;-50
2022/04/21 09:07:31;;;;;;;14.80;12.20;;;27.60;31.20;;;;;;5072544;28;20021;-52
2022/04/21 09:10:07;;;;;;;18.25;12.07;;;28.40;30.20;;;;;;5072790;28;20024;-42
2022/04/21 09:12:34;;;;;;;20.02;12.70;;;29.40;30.60;;;;;;5072634;28;20082;-47
2022/04/21 09:15:14;;;;;;;14.52;11.20;;;28.60;29.80;;;;;;5072417;28;20459;-47
2022/04/21 09:17:52;;;;;;;15.57;12.95;;;30.00;29.40;;;;;;5071731;28;20132;-45
2022/04/21 09:20:20;;;;;;;17.10;12.43;;;27.40;28.00;;;;;;5071657;28;20375;-48
2022/04/21 09:22:54;;;;;;;20.97;12.27;;;26.50;30.30;;;;;;5072402;28;20044;-50
2022/04/21 09:25:24;;;;;;;16.92;12.23;;;26.20;30.00;;;;;;5071369;28;20028;-42
2022/04/21 09:27:51;;;;;;;15.77;12.52;;;27.00;31.50;;;;;;5069566;28;20036;-43
2022/04/21 09:30:18;;;;;;;14.65;11.57;;;26.60;30.60;;;;;;5071475;28;20021;-51
2022/04/21 09:32:56;;;;;;;13.50;11.50;;;27.70;31.50;;;;;;5071294;28;20016;-49
2022/04/21 09:35:23;;;;;;;;;;;27.70;29.00;;;;;;5072023;28;20031;-44
2022/04/21 09:37:50;;;;;;;16.95;12.55;;;27.80;31.00;;;;;;5071574;28;20260;-47
2022/04/21 09:40:18;;;;;;;17.25;12.02;;;27.00;28.70;;;;;;5071361;28;20025;-49
2022/04/21 09:42:58;;;;;;;15.53;11.63;;;26.10;30.00;;;;;;5070958;28;20048;-50
2022/04/21 09:48:18;;;;;;;14.68;11.35;;;27.80;30.10;;;;;;5070507;28;20086;-43
2022/04/21 09:50:49;;;;;;;;;;;28.30;33.90;;;;;;5070833;28;20057;-50
2022/04/21 09:53:16;;;;;;;16.73;12.15;;;29.60;27.60;;;;;;5070322;28;19951;-51
2022/04/21 09:55:44;;;;;;;14.57;12.38;;;28.50;27.00;;;;;;5071041;28;20257;-45
2022/04/21 09:58:10;;;;;;;14.43;12.13;;;28.30;27.50;;;;;;5070542;28;20048;-41
2022/04/21 10:00:38;;;;;;;16.90;12.50;;;26.90;29.00;;;;;;5070576;28;20062;-43
2022/04/21 10:03:05;;;;;;;14.93;12.38;;;25.50;30.10;;;;;;5071096;28;20020;-47
2022/04/21 10:05:33;;;;;;;16.75;11.73;;;25.60;30.60;;;;;;5070811;28;20067;-46
2022/04/21 10:08:04;;;;;;;15.50;11.70;;;26.30;29.60;;;;;;5071253;28;20507;-45
2022/04/21 10:10:31;;;;;;;17.17;12.27;;;26.40;28.80;;;;;;5071718;28;20060;-47
2022/04/21 10:12:59;;;;;;;15.38;12.18;;;25.60;29.40;;;;;;5071474;28;20031;-52
2022/04/21 10:15:26;;;;;;;14.85;11.43;;;26.50;29.80;;;;;;5070680;28;20036;-41
2022/04/21 10:17:52;;;;;;;13.45;12.05;;;27.80;31.30;;;;;;5071127;28;20027;-50
2022/04/21 10:20:25;;;;;;;14.65;11.05;;;28.20;27.80;;;;;;5071318;28;20051;-50
2022/04/21 10:22:52;;;;;;;14.93;11.45;;;29.00;27.90;;;;;;5071195;28;20495;-50
2022/04/21 10:25:19;;;;;;;14.32;11.48;;;29.50;27.60;;;;;;5071099;28;20028;-51
2022/04/21 10:27:47;;;;;;;15.88;11.93;;;28.60;27.40;;;;;;5070700;28;20047;-49
2022/04/21 10:30:20;;;;;;;12.45;10.52;;;27.80;28.40;;;;;;5056536;28;20033;-50
2022/04/21 10:32:54;;;;;;;14.75;11.40;;;28.20;30.70;;;;;;5068322;28;20078;-42
2022/04/21 10:35:23;;;;;;;13.55;10.07;;;28.40;29.60;;;;;;5071069;28;20032;-54
2022/04/21 10:38:14;;;;;;;13.48;10.93;;;30.00;28.50;;;;;;5071142;28;20065;-49
2022/04/21 10:41:06;;;;;;;14.68;11.25;;;29.60;26.30;;;;;;5070461;28;20025;-55
2022/04/21 10:43:50;;;;;;;13.50;9.90;;;28.80;26.10;;;;;;5070774;28;20060;-54
2022/04/21 10:46:21;;;;;;;14.80;10.95;;;29.60;27.30;;;;;;5071093;28;20036;-55
2022/04/21 10:48:47;;;;;;;15.02;11.80;;;29.20;28.80;;;;;;5071152;28;20127;-50
2022/04/21 10:51:33;;;;;;;12.95;10.52;;;29.40;26.50;;;;;;5071045;28;20024;-53
2022/04/21 10:59:31;;;;;;;13.20;10.57;;;29.30;27.70;;;;;;5071193;28;20032;-45
2022/04/21 11:02:11;;;;;;;14.80;11.68;;;29.00;27.20;;;;;;5070835;28;20387;-55
2022/04/21 11:04:37;;;;;;;13.93;11.15;;;29.00;28.80;;;;;;5070841;28;20498;-48
2022/04/21 11:07:11;;;;;;;14.25;10.07;;;28.60;27.00;;;;;;5070594;28;20056;-56
2022/04/21 11:09:37;;;;;;;13.43;10.38;;;28.70;29.00;;;;;;5070863;28;20047;-55
2022/04/21 11:12:04;;;;;;;12.98;10.75;;;29.70;27.80;;;;;;5070723;28;20116;-46
2022/04/21 11:14:36;;;;;;;15.45;10.55;;;30.00;26.00;;;;;;5070766;28;20029;-52
2022/04/21 11:17:04;;;;;;;11.90;9.95;;;30.70;25.50;;;;;;5070580;28;20526;-55
2022/04/21 11:19:30;;;;;;;12.82;10.30;;;31.00;25.10;;;;;;5070856;28;20031;-44
2022/04/21 11:21:57;;;;;;;15.63;9.88;;;30.00;24.70;;;;;;5070719;28;20032;-51
2022/04/21 11:24:24;;;;;;;17.05;10.55;;;29.60;26.60;;;;;;5070661;28;20031;-51
2022/04/21 11:26:59;;;;;;;14.20;10.95;;;28.60;26.90;;;;;;5070530;28;20568;-52
2022/04/21 11:29:26;;;;;;;12.88;10.70;;;29.20;28.60;;;;;;5073170;28;20040;-48
2022/04/21 11:31:57;;;;;;;11.90;10.35;;;29.60;28.10;;;;;;5073576;28;20547;-49
2022/04/21 11:34:25;;;;;;;11.40;9.45;;;29.70;26.10;;;;;;5074040;28;20024;-46
2022/04/21 11:36:56;;;;;;;12.38;9.55;;;30.70;28.30;;;;;;5074274;28;20038;-49
2022/04/21 11:39:22;;;;;;;13.82;11.07;;;30.50;26.80;;;;;;5074685;28;20055;-61
2022/04/21 11:41:52;;;;;;;12.10;9.05;;;29.00;26.70;;;;;;5072694;28;20055;-47
2022/04/21 11:44:25;;;;;;;13.57;9.98;;;29.90;29.10;;;;;;5073021;28;20086;-42
2022/04/21 11:46:51;;;;;;;10.25;8.63;;;28.70;29.20;;;;;;5072629;28;20384;-46
2022/04/21 11:49:17;;;;;;;13.57;10.70;;;29.30;28.90;;;;;;5072364;28;20428;-47
2022/04/21 11:51:44;;;;;;;13.68;9.98;;;28.80;29.30;;;;;;5073398;28;20031;-53
2022/04/21 11:54:11;;;;;;;12.43;10.43;;;28.90;28.10;;;;;;5071404;28;20567;-56
2022/04/21 11:56:38;;;;;;;14.48;9.85;;;28.40;28.10;;;;;;5072957;28;20107;-46
2022/04/21 11:59:07;;;;;;;16.08;10.68;;;28.70;27.90;;;;;;5073891;28;20104;-49
2022/04/21 12:07:08;;;;;;;12.70;10.00;;;28.20;28.80;;;;;;5072660;28;20054;-51
2022/04/21 12:09:38;;;;;;;11.65;8.25;;;27.50;28.50;;;;;;5070417;28;20060;-52
2022/04/21 12:12:05;;;;;;;12.25;9.48;;;28.60;28.50;;;;;;5071941;28;20024;-51
2022/04/21 12:14:31;;;;;;;13.25;8.80;;;27.20;27.80;;;;;;5072538;28;20447;-53
2022/04/21 12:16:59;;;;;;;10.27;7.82;;;28.10;28.90;;;;;;5072300;28;20055;-48
2022/04/21 12:19:46;;;;;;;12.35;8.30;;;28.80;28.60;;;;;;5072401;28;20038;-49
2022/04/21 12:22:20;;;;;;;11.57;7.95;;;27.90;28.00;;;;;;5073244;28;20111;-46
2022/04/21 12:24:48;;;;;;;12.20;8.35;;;27.50;29.80;;;;;;5073162;28;20115;-48
2022/04/21 12:27:23;;;;;;;11.38;7.30;;;27.80;28.80;;;;;;5073217;28;20086;-49
2022/04/21 12:30:00;;;;;;;10.95;7.70;;;27.50;29.90;;;;;;5073246;28;20052;-51
2022/04/21 12:32:28;;;;;;;12.18;7.63;;;27.40;28.30;;;;;;5073351;28;20028;-50
2022/04/21 12:34:55;;;;;;;12.05;8.00;;;27.60;29.30;;;;;;5073214;28;20094;-46
2022/04/21 12:37:29;;;;;;;13.35;7.30;;;26.60;28.70;;;;;;5073210;28;20024;-44
2022/04/21 12:39:56;;;;;;;12.32;7.50;;;26.80;31.60;;;;;;5072507;28;20108;-49
2022/04/21 12:42:22;;;;;;;9.95;7.50;;;25.90;30.20;;;;;;5072993;28;20376;-43
2022/04/21 12:44:50;;;;;;;9.50;7.40;;;26.00;30.00;;;;;;5073214;28;20090;-51
2022/04/21 12:47:17;;;;;;;9.98;6.90;;;26.50;30.80;;;;;;5073074;28;20078;-47
2022/04/21 12:50:03;;;;;;;11.27;6.78;;;26.30;29.60;;;;;;5072835;28;20033;-52
2022/04/21 12:52:57;;;;;;;9.10;6.57;;;26.40;29.90;;;;;;5073042;28;20020;-51
2022/04/21 12:55:22;;;;;;;9.70;6.72;;;26.80;30.70;;;;;;5072954;28;20372;-57
2022/04/21 12:58:01;;;;;;;8.35;6.57;;;26.70;29.10;;;;;;5072907;28;20436;-42
2022/04/21 13:00:27;;;;;;;;;;;25.60;30.00;;;;;;5073151;28;20110;-55
2022/04/21 13:02:53;;;;;;;16.73;7.40;;;24.40;30.10;;;;;;5071368;28;20366;-49
2022/04/21 13:05:19;;;;;;;10.32;7.30;;;24.30;33.60;;;;;;5072710;28;20032;-55
2022/04/21 13:07:44;;;;;;;10.23;7.28;;;24.00;32.80;;;;;;5072584;28;20380;-48
2022/04/21 13:10:10;;;;;;;9.32;6.43;;;23.90;33.00;;;;;;5072754;28;20507;-50
2022/04/21 13:12:36;;;;;;;10.95;6.22;;;23.70;36.10;;;;;;5072493;28;20032;-47
2022/04/21 13:15:04;;;;;;;9.23;6.05;;;23.40;33.40;;;;;;5072351;28;20175;-56
2022/04/21 13:17:30;;;;;;;9.10;4.93;;;23.00;33.50;;;;;;5072326;28;20055;-49
2022/04/21 13:19:55;;;;;;;8.75;5.22;;;23.00;37.70;;;;;;5072311;28;20025;-50
2022/04/21 13:22:21;;;;;;;7.80;5.95;;;23.00;33.90;;;;;;5072153;28;20031;-56
2022/04/21 13:24:47;;;;;;;7.13;5.20;;;21.90;33.00;;;;;;5072233;28;20101;-49
2022/04/21 13:27:16;;;;;;;7.03;4.65;;;21.40;35.50;;;;;;5072179;28;20420;-57
2022/04/21 13:29:44;;;;;;;8.68;5.20;;;21.80;36.20;;;;;;5072060;28;20040;-50
2022/04/21 13:34:55;;;;;;;6.28;4.45;;;21.40;37.20;;;;;;5072106;28;20153;-46